Time;durP1;ratioP1;P1;durP2;ratioP2;P2;SDS_P1;SDS_P2;PMS_P1;PMS_P2;Temp;Humidity;BMP_temperature;BMP_pressure;BME280_temperature;BME280_humidity;BME280_pressure;Samples;Min_cycle;Max_cycle;Signal;HPM_P1;HPM_P2
2021/08/12 00:01:41;;;;;;;17.10;10.88;;;17.80;95.00;;;;;;5059298;28;20032;-70
2021/08/12 00:04:07;;;;;;;12.88;9.88;;;17.80;95.20;;;;;;5037486;28;20036;-70
2021/08/12 00:06:33;;;;;;;14.88;10.15;;;17.80;95.30;;;;;;5053269;28;20483;-70
2021/08/12 00:08:58;;;;;;;13.35;10.35;;;17.80;95.10;;;;;;5052816;28;20032;-70
2021/08/12 00:11:24;;;;;;;12.85;9.35;;;17.70;95.20;;;;;;5040732;28;20108;-68
2021/08/12 00:13:49;;;;;;;12.30;9.48;;;17.70;95.20;;;;;;5047905;28;20385;-70
2021/08/12 00:16:15;;;;;;;14.52;10.10;;;17.70;95.30;;;;;;5053591;28;20025;-70
2021/08/12 00:18:42;;;;;;;12.32;9.40;;;17.60;95.40;;;;;;5056570;28;20099;-70
2021/08/12 00:21:08;;;;;;;15.18;10.20;;;17.70;95.20;;;;;;5043769;28;20079;-71
2021/08/12 00:23:34;;;;;;;13.02;9.73;;;17.60;95.10;;;;;;5058483;28;20037;-71
2021/08/12 00:26:00;;;;;;;15.05;9.70;;;17.60;95.40;;;;;;5056234;28;20039;-70
2021/08/12 00:28:25;;;;;;;13.77;9.48;;;17.60;95.60;;;;;;5056447;28;20351;-71
2021/08/12 00:30:51;;;;;;;14.10;9.80;;;17.60;95.60;;;;;;5034321;28;20102;-71
2021/08/12 00:33:17;;;;;;;14.27;9.40;;;17.60;95.60;;;;;;5054737;28;20100;-69
2021/08/12 00:35:42;;;;;;;14.57;10.00;;;17.60;95.50;;;;;;5028025;28;20113;-70
2021/08/12 00:38:08;;;;;;;13.35;9.88;;;17.60;95.80;;;;;;5049404;28;20094;-70
2021/08/12 00:40:34;;;;;;;15.65;8.88;;;17.60;95.70;;;;;;5050378;28;20552;-71
2021/08/12 00:43:00;;;;;;;11.90;9.38;;;17.50;95.60;;;;;;5059456;28;20032;-70
2021/08/12 00:45:26;;;;;;;12.27;9.13;;;17.50;95.60;;;;;;5037959;28;20033;-70
2021/08/12 00:47:52;;;;;;;13.48;9.25;;;17.50;95.70;;;;;;5046760;28;20025;-70
2021/08/12 00:50:21;;;;;;;14.77;9.15;;;17.50;95.80;;;;;;5048289;28;20079;-70
2021/08/12 00:52:47;;;;;;;13.45;9.65;;;17.50;95.80;;;;;;5050156;28;20037;-71
2021/08/12 00:55:12;;;;;;;10.32;8.50;;;17.50;95.80;;;;;;5050925;28;20475;-70
2021/08/12 00:57:38;;;;;;;12.45;8.98;;;17.50;96.00;;;;;;5056367;28;20039;-70
2021/08/12 01:00:06;;;;;;;14.88;9.40;;;17.50;95.90;;;;;;5052545;28;20037;-70
2021/08/12 01:02:31;;;;;;;12.75;8.55;;;17.50;95.70;;;;;;5039175;28;20104;-70
2021/08/12 01:04:57;;;;;;;9.75;8.38;;;17.40;95.90;;;;;;5053963;28;20542;-70
2021/08/12 01:07:26;;;;;;;11.40;8.02;;;17.40;95.70;;;;;;5046339;28;20033;-70
2021/08/12 01:09:54;;;;;;;10.30;8.30;;;17.40;95.90;;;;;;5037154;28;20502;-71
2021/08/12 01:12:40;;;;;;;11.35;8.68;;;17.40;95.80;;;;;;5053843;28;20087;-70
2021/08/12 01:15:08;;;;;;;11.85;8.13;;;17.40;96.00;;;;;;5046843;28;20029;-70
2021/08/12 01:17:41;;;;;;;11.90;8.00;;;17.30;96.10;;;;;;5037778;28;20485;-70
2021/08/12 01:20:06;;;;;;;11.98;8.35;;;17.30;95.90;;;;;;5055868;28;20029;-70
2021/08/12 01:22:38;;;;;;;10.98;8.57;;;17.30;96.10;;;;;;5045958;28;20044;-69
2021/08/12 01:25:09;;;;;;;12.10;9.20;;;17.30;96.00;;;;;;5042621;28;20029;-70
2021/08/12 01:27:37;;;;;;;11.95;8.38;;;17.30;95.90;;;;;;5051808;28;20583;-70
2021/08/12 01:30:07;;;;;;;13.98;8.10;;;17.30;95.90;;;;;;5057695;28;20495;-70
2021/08/12 01:33:09;;;;;;;11.90;9.20;;;17.30;95.80;;;;;;5056087;28;20029;-70
2021/08/12 01:35:38;;;;;;;11.55;7.93;;;17.30;95.90;;;;;;5056157;28;20037;-70
2021/08/12 01:38:07;;;;;;;15.77;9.35;;;17.30;95.90;;;;;;5050560;28;20395;-70
2021/08/12 01:40:35;;;;;;;11.15;9.10;;;17.30;96.00;;;;;;5051971;28;20108;-69
2021/08/12 01:43:05;;;;;;;11.20;8.52;;;17.20;96.20;;;;;;5046424;28;20041;-69
2021/08/12 01:45:31;;;;;;;12.18;8.95;;;17.20;96.30;;;;;;5053091;28;20071;-71
2021/08/12 01:47:58;;;;;;;13.15;8.55;;;17.20;96.30;;;;;;5032329;28;20021;-70
2021/08/12 01:50:25;;;;;;;13.25;9.25;;;17.10;96.30;;;;;;5049397;28;20080;-71
2021/08/12 01:52:52;;;;;;;12.65;8.88;;;17.10;96.30;;;;;;5057563;28;20111;-70
2021/08/12 01:55:21;;;;;;;11.68;8.63;;;17.10;96.40;;;;;;5056538;28;20047;-70
2021/08/12 01:57:47;;;;;;;10.05;8.23;;;17.10;96.30;;;;;;5050279;28;20033;-71
2021/08/12 02:00:13;;;;;;;14.60;9.13;;;17.10;96.40;;;;;;5057354;28;20033;-70
2021/08/12 02:02:43;;;;;;;11.40;8.30;;;17.10;96.20;;;;;;5055618;28;20083;-70
2021/08/12 02:05:12;;;;;;;10.70;7.68;;;17.10;96.10;;;;;;5049223;28;20033;-70
2021/08/12 02:07:40;;;;;;;9.43;7.88;;;17.10;96.10;;;;;;5057321;28;20033;-70
2021/08/12 02:10:07;;;;;;;8.32;7.13;;;17.10;96.00;;;;;;5057858;28;20033;-70
2021/08/12 02:12:32;;;;;;;10.35;7.82;;;17.10;96.10;;;;;;5050149;28;20072;-70
2021/08/12 02:14:58;;;;;;;9.43;7.47;;;17.10;96.20;;;;;;5056875;28;20056;-70
2021/08/12 02:17:24;;;;;;;10.25;8.23;;;17.10;96.00;;;;;;5048239;28;20426;-71
2021/08/12 02:19:50;;;;;;;11.05;7.47;;;17.10;96.00;;;;;;5059776;28;20625;-71
2021/08/12 02:22:21;;;;;;;9.80;7.93;;;17.10;96.10;;;;;;5048083;28;20040;-70
2021/08/12 02:25:01;;;;;;;;;;;17.00;96.10;;;;;;5034683;28;20065;-70
2021/08/12 02:27:27;;;;;;;9.05;7.38;;;17.00;96.10;;;;;;5053777;28;19913;-70
2021/08/12 02:29:54;;;;;;;10.88;7.45;;;17.00;96.10;;;;;;5055287;28;20032;-70
2021/08/12 02:32:23;;;;;;;11.45;8.10;;;17.00;96.10;;;;;;5060043;28;20060;-71
2021/08/12 02:34:51;;;;;;;9.15;7.28;;;17.00;96.10;;;;;;5034122;28;20026;-70
2021/08/12 02:37:18;;;;;;;7.95;7.15;;;17.00;96.20;;;;;;5048686;28;20025;-70
2021/08/12 02:39:46;;;;;;;11.02;7.40;;;17.00;96.20;;;;;;5059738;28;20434;-71
2021/08/12 02:42:12;;;;;;;9.23;7.60;;;17.00;96.20;;;;;;5043296;28;20025;-70
2021/08/12 02:44:41;;;;;;;8.57;7.00;;;17.00;96.10;;;;;;5052816;28;20021;-71
2021/08/12 02:47:08;;;;;;;10.68;7.75;;;17.00;95.90;;;;;;5049146;28;20108;-68
2021/08/12 02:49:39;;;;;;;10.40;8.13;;;17.00;96.10;;;;;;5044917;28;20032;-70
2021/08/12 02:52:07;;;;;;;10.10;7.47;;;17.00;95.90;;;;;;5059610;28;20024;-70
2021/08/12 02:54:34;;;;;;;7.80;6.95;;;17.00;95.80;;;;;;5057271;28;20055;-70
2021/08/12 02:57:00;;;;;;;10.00;8.25;;;17.00;95.80;;;;;;5042938;28;20040;-69
2021/08/12 02:59:26;;;;;;;9.60;7.03;;;16.90;95.90;;;;;;5041588;28;20024;-70
2021/08/12 03:01:54;;;;;;;9.55;7.85;;;16.90;95.90;;;;;;5057179;28;20037;-70
2021/08/12 03:04:21;;;;;;;10.70;7.78;;;16.90;96.00;;;;;;5056936;28;20041;-70
2021/08/12 03:06:52;;;;;;;9.10;7.22;;;16.90;95.90;;;;;;5054228;28;20025;-70
2021/08/12 03:09:21;;;;;;;9.57;7.57;;;16.90;95.90;;;;;;5048628;28;20013;-70
2021/08/12 03:11:47;;;;;;;8.65;6.78;;;16.90;95.90;;;;;;5031446;28;20082;-70
2021/08/12 03:14:14;;;;;;;10.73;7.47;;;16.80;95.90;;;;;;5038004;28;20118;-71
2021/08/12 03:16:40;;;;;;;8.93;7.20;;;16.80;95.70;;;;;;5036148;28;20524;-69
2021/08/12 03:19:06;;;;;;;8.20;7.20;;;16.80;95.90;;;;;;5045906;28;20035;-70
2021/08/12 03:21:32;;;;;;;8.25;7.35;;;16.80;95.90;;;;;;5051655;28;20395;-69
2021/08/12 03:24:02;;;;;;;9.07;7.43;;;16.80;95.90;;;;;;5056272;28;20499;-68
2021/08/12 03:26:31;;;;;;;8.35;6.90;;;16.70;95.80;;;;;;5052366;28;20032;-70
2021/08/12 03:28:57;;;;;;;9.13;6.50;;;16.70;95.70;;;;;;5053153;28;20036;-70
2021/08/12 03:31:23;;;;;;;9.07;7.05;;;16.70;95.90;;;;;;5039108;28;20023;-70
2021/08/12 03:33:49;;;;;;;11.75;7.22;;;16.70;95.80;;;;;;5058228;28;20032;-70
2021/08/12 03:36:14;;;;;;;8.15;5.88;;;16.70;95.70;;;;;;5024491;28;20032;-70
2021/08/12 03:38:40;;;;;;;7.30;6.05;;;16.70;95.60;;;;;;5052644;28;20114;-70
2021/08/12 03:41:06;;;;;;;7.38;6.40;;;16.70;95.70;;;;;;5059552;28;20082;-71
2021/08/12 03:43:32;;;;;;;9.13;6.70;;;16.80;95.60;;;;;;5056019;28;20029;-70
2021/08/12 03:45:58;;;;;;;12.13;6.85;;;16.80;95.70;;;;;;5041501;28;20035;-70
2021/08/12 03:48:24;;;;;;;9.25;6.55;;;16.80;95.70;;;;;;5048604;28;20029;-70
2021/08/12 03:50:49;;;;;;;8.88;6.45;;;16.80;95.60;;;;;;5053232;28;20104;-71
2021/08/12 03:53:15;;;;;;;8.23;6.45;;;16.80;95.50;;;;;;5050876;28;20033;-70
2021/08/12 03:55:41;;;;;;;9.15;6.78;;;16.70;95.60;;;;;;5044826;28;20040;-70
2021/08/12 03:58:06;;;;;;;8.07;6.80;;;16.70;95.50;;;;;;5048235;28;20032;-70
2021/08/12 04:00:32;;;;;;;8.07;6.68;;;16.70;95.40;;;;;;5056566;28;20037;-70
2021/08/12 04:02:58;;;;;;;8.60;6.57;;;16.70;95.30;;;;;;5055529;28;20024;-69
2021/08/12 04:05:23;;;;;;;9.48;6.85;;;16.80;95.20;;;;;;5050027;28;20091;-71
2021/08/12 04:07:49;;;;;;;8.80;6.78;;;16.80;95.30;;;;;;5057158;28;20107;-69
2021/08/12 04:10:15;;;;;;;7.53;5.80;;;16.80;95.20;;;;;;5051446;28;20078;-69
2021/08/12 04:12:43;;;;;;;7.38;6.47;;;16.80;95.10;;;;;;5041799;28;20041;-70
2021/08/12 04:15:09;;;;;;;7.57;5.95;;;16.80;95.20;;;;;;5054147;28;20112;-69
2021/08/12 04:17:35;;;;;;;8.07;6.15;;;16.80;95.10;;;;;;5051497;28;20091;-70
2021/08/12 04:20:01;;;;;;;7.05;5.80;;;16.80;95.10;;;;;;5016886;28;20442;-68
2021/08/12 04:22:27;;;;;;;6.45;5.65;;;16.80;95.10;;;;;;5057054;28;20020;-70
2021/08/12 04:24:52;;;;;;;9.63;6.65;;;16.70;95.10;;;;;;5041095;28;20060;-69
2021/08/12 04:27:18;;;;;;;7.20;5.90;;;16.80;94.90;;;;;;5025781;28;20036;-68
2021/08/12 04:29:44;;;;;;;6.75;5.80;;;16.80;95.00;;;;;;5029578;28;20028;-69
2021/08/12 04:32:12;;;;;;;7.72;5.88;;;16.80;95.00;;;;;;5048692;28;20024;-68
2021/08/12 04:34:38;;;;;;;7.75;6.20;;;16.80;95.00;;;;;;5048494;28;20036;-68
2021/08/12 04:37:04;;;;;;;9.30;5.82;;;16.80;94.90;;;;;;5054551;28;20029;-68
2021/08/12 04:39:30;;;;;;;8.77;6.13;;;16.80;94.90;;;;;;5058252;28;20039;-68
2021/08/12 04:41:55;;;;;;;7.32;5.95;;;16.90;94.90;;;;;;5041667;28;20035;-67
2021/08/12 04:44:21;;;;;;;8.68;6.05;;;16.90;95.10;;;;;;5059311;28;20021;-68
2021/08/12 04:46:47;;;;;;;7.82;6.35;;;16.90;94.90;;;;;;5044739;28;20021;-67
2021/08/12 04:49:13;;;;;;;7.80;6.15;;;16.90;94.80;;;;;;5056503;28;20108;-68
2021/08/12 04:51:39;;;;;;;7.20;6.15;;;16.90;94.80;;;;;;5046199;28;20024;-67
2021/08/12 04:54:04;;;;;;;11.98;6.00;;;17.00;94.80;;;;;;5058443;28;20124;-68
2021/08/12 04:56:30;;;;;;;8.77;5.88;;;17.10;94.80;;;;;;5054963;28;20033;-68
2021/08/12 04:58:58;;;;;;;8.52;5.60;;;17.20;94.20;;;;;;5052835;28;20036;-68
2021/08/12 05:01:24;;;;;;;8.90;6.32;;;17.30;94.10;;;;;;5061895;28;20032;-69
2021/08/12 05:03:50;;;;;;;7.15;5.13;;;17.30;94.00;;;;;;5043066;28;20063;-68
2021/08/12 05:06:15;;;;;;;7.57;5.85;;;17.30;94.10;;;;;;5049836;28;20478;-70
2021/08/12 05:08:43;;;;;;;6.60;5.70;;;17.30;93.90;;;;;;5054158;28;20387;-68
2021/08/12 05:11:10;;;;;;;7.75;5.25;;;17.30;93.90;;;;;;5045680;28;20020;-68
2021/08/12 05:13:36;;;;;;;6.80;5.88;;;17.30;93.90;;;;;;5056611;28;20768;-69
2021/08/12 05:16:02;;;;;;;6.07;5.32;;;17.30;93.60;;;;;;5039524;28;20029;-69
2021/08/12 05:18:28;;;;;;;6.75;5.82;;;17.30;93.80;;;;;;5040014;28;20040;-68
2021/08/12 05:20:54;;;;;;;9.25;6.80;;;17.30;93.70;;;;;;5044493;28;20035;-68
2021/08/12 05:23:19;;;;;;;9.38;6.47;;;17.30;93.60;;;;;;5053885;28;20115;-67
2021/08/12 05:25:45;;;;;;;7.35;6.53;;;17.30;94.00;;;;;;5058101;28;20687;-68
2021/08/12 05:28:12;;;;;;;10.02;7.07;;;17.30;93.60;;;;;;5035334;28;20396;-69
2021/08/12 05:30:38;;;;;;;13.05;6.78;;;17.30;93.60;;;;;;5049655;28;20025;-71
2021/08/12 05:33:04;;;;;;;9.70;6.70;;;17.30;93.80;;;;;;5039557;28;20463;-71
2021/08/12 05:35:30;;;;;;;8.18;5.90;;;17.30;93.30;;;;;;5045281;28;20087;-68
2021/08/12 05:37:56;;;;;;;7.50;6.03;;;17.30;93.50;;;;;;5013381;28;20028;-69
2021/08/12 05:40:21;;;;;;;9.90;6.35;;;17.30;93.40;;;;;;5039341;28;20096;-69
2021/08/12 05:42:47;;;;;;;8.60;5.90;;;17.20;93.30;;;;;;5054829;28;20435;-68
2021/08/12 05:45:12;;;;;;;6.55;5.65;;;17.30;93.70;;;;;;5052569;28;20032;-67
2021/08/12 05:47:41;;;;;;;11.00;6.25;;;17.50;93.70;;;;;;5028877;28;20052;-69
2021/08/12 05:50:07;;;;;;;6.93;5.38;;;17.60;92.90;;;;;;5062395;28;20494;-68
2021/08/12 05:52:37;;;;;;;9.00;5.82;;;17.70;93.20;;;;;;5043915;28;20037;-68
2021/08/12 05:55:04;;;;;;;7.25;5.03;;;17.90;92.90;;;;;;5052174;28;20044;-68
2021/08/12 05:57:30;;;;;;;8.25;6.07;;;18.00;92.70;;;;;;5055661;28;20115;-68
2021/08/12 05:59:55;;;;;;;6.75;5.18;;;18.00;92.30;;;;;;5042948;28;20432;-68
2021/08/12 06:02:21;;;;;;;8.98;6.32;;;18.00;92.20;;;;;;5053027;28;20048;-68
2021/08/12 06:04:47;;;;;;;8.30;5.47;;;18.10;92.20;;;;;;5048137;28;20024;-70
2021/08/12 06:07:13;;;;;;;11.15;6.82;;;18.20;92.10;;;;;;5056215;28;20036;-68
2021/08/12 06:09:39;;;;;;;11.80;6.28;;;18.10;91.40;;;;;;5050053;28;20083;-70
2021/08/12 06:12:05;;;;;;;7.68;5.55;;;18.20;91.60;;;;;;5047795;28;20029;-70
2021/08/12 06:14:31;;;;;;;6.93;5.75;;;18.10;91.60;;;;;;5059369;28;20529;-69
2021/08/12 06:16:57;;;;;;;12.07;6.90;;;18.10;91.60;;;;;;5055185;28;20033;-69
2021/08/12 06:19:22;;;;;;;8.32;6.38;;;18.10;91.40;;;;;;5047052;28;20048;-68
2021/08/12 06:21:48;;;;;;;9.90;6.15;;;18.10;91.60;;;;;;5058656;28;20029;-69
2021/08/12 06:24:14;;;;;;;11.25;6.50;;;18.10;91.70;;;;;;5045977;28;20143;-69
2021/08/12 06:26:41;;;;;;;8.45;6.03;;;18.10;91.60;;;;;;5050264;28;20483;-69
2021/08/12 06:29:06;;;;;;;11.32;6.20;;;18.20;91.70;;;;;;5041768;28;20109;-67
2021/08/12 06:31:37;;;;;;;10.45;6.43;;;18.20;91.70;;;;;;5064272;28;20044;-69
2021/08/12 06:34:03;;;;;;;;;;;18.20;91.80;;;;;;5041875;28;20574;-70
2021/08/12 06:36:31;;;;;;;12.48;6.70;;;18.20;91.60;;;;;;5051543;28;19995;-68
2021/08/12 06:38:59;;;;;;;7.50;5.75;;;18.30;91.10;;;;;;5044230;28;20016;-68
2021/08/12 06:41:26;;;;;;;9.25;6.15;;;18.30;91.20;;;;;;5051505;28;20029;-68
2021/08/12 06:43:51;;;;;;;14.45;6.03;;;18.30;90.90;;;;;;5016328;28;20091;-68
2021/08/12 06:46:17;;;;;;;6.18;5.53;;;18.40;90.80;;;;;;5051514;28;20021;-68
2021/08/12 06:48:43;;;;;;;7.05;5.00;;;18.30;90.50;;;;;;5041074;28;20384;-68
2021/08/12 06:51:08;;;;;;;10.63;5.65;;;18.30;90.70;;;;;;5058523;28;20057;-69
2021/08/12 06:53:34;;;;;;;8.70;5.85;;;18.40;90.30;;;;;;5056366;28;20544;-68
2021/08/12 06:56:02;;;;;;;11.30;6.28;;;18.40;90.50;;;;;;5059562;28;20033;-68
2021/08/12 06:58:27;;;;;;;8.30;5.43;;;18.50;90.10;;;;;;5040399;28;20033;-69
2021/08/12 07:00:53;;;;;;;6.57;5.25;;;18.60;90.20;;;;;;5044311;28;20036;-68
2021/08/12 07:03:19;;;;;;;9.13;5.60;;;18.60;90.40;;;;;;5054057;28;20032;-68
2021/08/12 07:05:44;;;;;;;7.78;5.07;;;18.60;90.30;;;;;;5052500;28;20033;-69
2021/08/12 07:08:10;;;;;;;6.22;5.15;;;18.60;90.50;;;;;;5051232;28;20108;-69
2021/08/12 07:10:36;;;;;;;8.90;5.25;;;18.60;90.00;;;;;;5059797;28;20081;-69
2021/08/12 07:13:02;;;;;;;7.25;4.97;;;18.70;90.00;;;;;;5051212;28;20029;-73
2021/08/12 07:15:29;;;;;;;7.63;4.82;;;18.70;90.00;;;;;;5040069;28;20033;-73
2021/08/12 07:17:55;;;;;;;11.43;6.78;;;18.80;90.10;;;;;;5031832;28;20025;-69
2021/08/12 07:20:21;;;;;;;7.78;5.47;;;18.90;90.10;;;;;;5040513;28;20548;-69
2021/08/12 07:22:47;;;;;;;6.43;4.88;;;19.00;90.00;;;;;;5017421;28;20082;-69
2021/08/12 07:25:13;;;;;;;5.97;4.40;;;19.20;90.00;;;;;;5054148;28;20016;-69
2021/08/12 07:27:39;;;;;;;7.32;5.05;;;19.20;89.70;;;;;;5042101;28;20021;-68
2021/08/12 07:30:06;;;;;;;8.93;4.85;;;19.20;89.40;;;;;;5037129;28;20451;-69
2021/08/12 07:32:32;;;;;;;8.32;5.25;;;19.20;89.80;;;;;;5061348;28;20044;-69
2021/08/12 07:34:57;;;;;;;7.57;4.97;;;19.30;89.40;;;;;;5024780;28;20029;-69
2021/08/12 07:37:23;;;;;;;5.28;3.97;;;19.30;88.80;;;;;;5052307;28;20078;-69
2021/08/12 07:39:49;;;;;;;6.70;5.38;;;19.50;89.20;;;;;;5032448;28;20029;-69
2021/08/12 07:42:19;;;;;;;6.20;4.50;;;19.50;88.70;;;;;;5040829;28;20055;-73
2021/08/12 07:44:46;;;;;;;5.90;4.68;;;19.60;89.00;;;;;;5049741;28;20049;-69
2021/08/12 07:47:12;;;;;;;8.32;4.50;;;19.70;88.80;;;;;;5029183;28;20021;-69
2021/08/12 07:49:37;;;;;;;6.47;5.45;;;19.80;88.10;;;;;;5054265;28;20036;-69
2021/08/12 07:52:03;;;;;;;6.25;4.40;;;19.70;88.10;;;;;;5023414;28;20487;-70
2021/08/12 07:54:29;;;;;;;7.00;4.80;;;19.80;88.00;;;;;;5037768;28;20099;-70
2021/08/12 07:56:55;;;;;;;7.35;4.50;;;19.90;87.90;;;;;;5042025;28;20127;-69
2021/08/12 07:59:21;;;;;;;6.53;4.43;;;20.00;87.80;;;;;;5047585;28;20041;-69
2021/08/12 08:01:47;;;;;;;8.82;4.90;;;20.10;87.00;;;;;;5036642;28;20036;-68
2021/08/12 08:04:12;;;;;;;6.50;4.80;;;20.10;86.00;;;;;;5039046;28;20035;-70
2021/08/12 08:06:38;;;;;;;5.78;4.53;;;20.10;86.90;;;;;;5047230;28;20025;-69
2021/08/12 08:09:04;;;;;;;6.15;4.65;;;20.10;86.80;;;;;;5030547;28;20025;-69
2021/08/12 08:11:31;;;;;;;5.53;4.57;;;20.10;87.00;;;;;;5032667;28;20062;-69
2021/08/12 08:13:57;;;;;;;6.03;4.22;;;20.00;86.70;;;;;;5047241;28;20122;-70
2021/08/12 08:16:23;;;;;;;8.45;4.75;;;19.90;87.00;;;;;;5030013;28;20625;-69
2021/08/12 08:18:49;;;;;;;7.13;4.97;;;19.90;87.30;;;;;;5043588;28;20543;-69
2021/08/12 08:21:15;;;;;;;9.45;5.18;;;19.90;87.60;;;;;;5050754;28;20067;-70
2021/08/12 08:23:41;;;;;;;5.68;4.45;;;19.90;88.40;;;;;;5038723;28;20486;-69
2021/08/12 08:26:06;;;;;;;6.82;4.55;;;20.10;88.60;;;;;;5040522;28;20035;-69
2021/08/12 08:28:32;;;;;;;8.13;4.70;;;20.10;88.00;;;;;;5044450;28;20437;-69
2021/08/12 08:30:58;;;;;;;7.75;4.60;;;20.10;88.00;;;;;;5038985;28;20040;-69
2021/08/12 08:33:23;;;;;;;7.82;4.85;;;20.00;88.50;;;;;;5038523;28;20033;-69
2021/08/12 08:35:49;;;;;;;6.72;4.40;;;20.00;88.30;;;;;;5051719;28;20052;-68
2021/08/12 08:38:15;;;;;;;7.07;4.55;;;20.10;88.70;;;;;;5049142;28;20032;-68
2021/08/12 08:40:41;;;;;;;8.40;5.32;;;20.20;89.20;;;;;;5055813;28;20021;-69
2021/08/12 08:43:08;;;;;;;8.13;5.05;;;20.30;88.30;;;;;;5054088;28;20444;-69
2021/08/12 08:45:36;;;;;;;9.02;5.05;;;20.40;87.90;;;;;;5057671;28;20504;-68
2021/08/12 08:48:02;;;;;;;6.63;4.72;;;20.60;87.20;;;;;;5039215;28;20036;-69
2021/08/12 08:50:32;;;;;;;8.23;5.07;;;20.70;86.90;;;;;;5040951;28;20107;-70
2021/08/12 08:52:59;;;;;;;7.00;5.68;;;20.80;87.00;;;;;;5047847;28;20085;-69
2021/08/12 08:55:24;;;;;;;5.93;4.22;;;20.90;86.00;;;;;;5035161;28;20036;-68
2021/08/12 08:57:55;;;;;;;6.78;4.65;;;20.90;86.30;;;;;;5044817;28;20044;-69
2021/08/12 09:00:22;;;;;;;7.20;4.53;;;21.00;86.00;;;;;;5034980;28;20048;-69
2021/08/12 09:02:49;;;;;;;6.18;4.72;;;21.10;86.20;;;;;;5047885;28;20108;-68
2021/08/12 09:05:15;;;;;;;6.78;5.07;;;21.20;86.10;;;;;;5031890;28;20192;-68
2021/08/12 09:07:42;;;;;;;8.57;4.93;;;21.20;85.10;;;;;;5058590;28;20327;-69
2021/08/12 09:10:10;;;;;;;5.45;4.45;;;21.40;85.20;;;;;;5049585;28;20026;-68
2021/08/12 09:12:36;;;;;;;7.30;5.03;;;21.40;85.20;;;;;;5039924;28;20059;-68
2021/08/12 09:15:05;;;;;;;6.50;4.90;;;21.50;85.20;;;;;;5041928;28;20484;-69
2021/08/12 09:17:31;;;;;;;6.25;4.85;;;21.60;84.80;;;;;;5035444;28;20080;-68
2021/08/12 09:20:14;;;;;;;5.60;4.03;;;21.70;84.70;;;;;;5039221;28;20045;-68
2021/08/12 09:22:54;;;;;;;5.90;4.53;;;21.90;83.70;;;;;;5033280;28;20031;-69
2021/08/12 09:25:48;;;;;;;7.13;5.25;;;22.00;83.90;;;;;;5038600;28;20077;-68
2021/08/12 09:28:17;;;;;;;7.03;4.90;;;22.00;83.90;;;;;;5053041;28;20378;-68
2021/08/12 09:30:45;;;;;;;5.82;4.75;;;22.10;84.20;;;;;;5031448;28;20472;-68
2021/08/12 09:33:17;;;;;;;7.20;4.38;;;22.20;83.50;;;;;;5031382;28;20028;-70
2021/08/12 09:35:44;;;;;;;5.80;4.78;;;22.30;83.70;;;;;;5048919;28;20021;-68
2021/08/12 09:38:12;;;;;;;6.50;4.68;;;22.30;83.70;;;;;;5053910;28;20033;-68
2021/08/12 09:40:37;;;;;;;7.90;4.88;;;22.40;82.50;;;;;;5039009;28;20029;-68
2021/08/12 09:43:06;;;;;;;9.45;4.72;;;22.40;83.00;;;;;;5046470;28;20506;-69
2021/08/12 09:45:33;;;;;;;7.85;5.25;;;22.60;81.00;;;;;;5013061;28;20448;-70
2021/08/12 09:48:13;;;;;;;4.88;4.30;;;22.60;82.10;;;;;;5039658;28;20021;-68
2021/08/12 09:50:40;;;;;;;7.93;4.72;;;22.70;82.00;;;;;;5040594;28;20020;-68
2021/08/12 09:53:06;;;;;;;7.30;5.60;;;22.70;82.20;;;;;;5045050;28;20582;-69
2021/08/12 09:55:40;;;;;;;5.78;4.82;;;22.80;81.60;;;;;;5047650;28;20037;-70
2021/08/12 09:58:08;;;;;;;6.95;4.55;;;22.90;82.00;;;;;;5034735;28;20039;-69
2021/08/12 10:00:39;;;;;;;4.95;4.43;;;22.90;80.70;;;;;;5054178;28;20060;-69
2021/08/12 10:03:24;;;;;;;7.25;4.55;;;23.00;79.50;;;;;;5046654;28;20495;-70
2021/08/12 10:05:50;;;;;;;7.57;5.55;;;23.10;79.90;;;;;;5032061;28;20035;-69
2021/08/12 10:08:36;;;;;;;8.15;5.20;;;23.10;78.30;;;;;;5048836;28;20024;-69
2021/08/12 10:11:15;;;;;;;6.70;5.28;;;23.20;76.80;;;;;;5039388;28;20044;-69
2021/08/12 10:13:41;;;;;;;6.25;4.85;;;23.30;77.20;;;;;;5038562;28;20052;-70
2021/08/12 10:16:08;;;;;;;5.88;4.78;;;23.30;76.80;;;;;;5047196;28;20033;-68
2021/08/12 10:18:38;;;;;;;5.30;4.72;;;23.40;77.80;;;;;;5045534;28;20492;-69
2021/08/12 10:21:04;;;;;;;6.55;4.88;;;23.40;78.60;;;;;;5042874;28;20033;-69
2021/08/12 10:23:31;;;;;;;7.28;5.10;;;23.40;77.80;;;;;;5049983;28;20540;-69
2021/08/12 10:25:58;;;;;;;7.47;5.40;;;23.50;77.10;;;;;;5031175;28;20025;-69
2021/08/12 10:28:26;;;;;;;5.65;4.78;;;23.50;74.90;;;;;;5051569;28;20495;-69
2021/08/12 10:30:55;;;;;;;5.75;4.70;;;23.50;76.40;;;;;;5048209;28;20083;-69
2021/08/12 10:33:22;;;;;;;6.03;4.60;;;23.60;75.80;;;;;;5039510;28;20036;-70
2021/08/12 10:35:49;;;;;;;5.85;4.65;;;23.70;77.20;;;;;;5061639;22;20051;-72
2021/08/12 10:38:14;;;;;;;7.50;5.32;;;23.90;75.60;;;;;;5025257;28;20025;-72
2021/08/12 10:40:42;;;;;;;6.85;5.03;;;24.10;76.10;;;;;;5056637;28;20033;-71
2021/08/12 10:43:11;;;;;;;7.18;4.78;;;24.20;75.20;;;;;;5041826;28;20025;-72
2021/08/12 10:45:37;;;;;;;5.65;4.78;;;24.30;73.90;;;;;;5061700;28;20033;-72
2021/08/12 10:48:04;;;;;;;6.63;5.40;;;24.30;74.60;;;;;;5061627;28;20025;-71
2021/08/12 10:50:38;;;;;;;6.55;5.10;;;24.40;75.20;;;;;;5059968;28;20036;-70
2021/08/12 10:55:34;;;;;;;6.85;5.13;;;24.50;74.70;;;;;;5059206;28;20044;-71
2021/08/12 10:58:18;;;;;;;6.10;5.47;;;24.60;75.00;;;;;;5041909;28;20399;-72
2021/08/12 11:00:51;;;;;;;6.13;5.25;;;24.60;74.90;;;;;;5058907;28;20032;-70
2021/08/12 11:03:46;;;;;;;15.48;5.70;;;24.70;75.40;;;;;;5057304;28;20064;-71
2021/08/12 11:06:22;;;;;;;5.65;5.00;;;24.50;74.00;;;;;;5056188;28;20120;-70
2021/08/12 11:08:59;;;;;;;6.60;4.80;;;24.50;74.60;;;;;;5040023;28;20029;-70
2021/08/12 11:11:30;;;;;;;9.68;6.45;;;24.70;73.60;;;;;;5056160;28;20032;-70
2021/08/12 11:13:56;;;;;;;6.05;5.13;;;24.90;71.10;;;;;;5056635;28;20040;-68
2021/08/12 11:16:24;;;;;;;7.68;5.30;;;24.90;71.80;;;;;;5041558;28;20171;-69
2021/08/12 11:18:58;;;;;;;5.82;4.80;;;25.20;72.80;;;;;;5060081;28;20031;-69
2021/08/12 11:21:30;;;;;;;7.10;5.40;;;25.50;72.80;;;;;;5060373;28;20024;-69
2021/08/12 11:24:05;;;;;;;6.15;5.05;;;25.50;67.50;;;;;;5038189;28;20111;-70
2021/08/12 11:26:54;;;;;;;6.40;5.00;;;25.80;69.60;;;;;;5040387;28;20040;-71
2021/08/12 11:29:34;;;;;;;7.18;4.75;;;26.00;66.50;;;;;;5046830;28;20076;-70
2021/08/12 11:32:11;;;;;;;7.53;4.65;;;26.10;66.50;;;;;;5039376;28;20021;-71
2021/08/12 11:34:54;;;;;;;5.95;4.90;;;26.30;66.90;;;;;;5048607;28;20090;-70
2021/08/12 11:37:22;;;;;;;6.55;4.93;;;27.50;66.60;;;;;;5040429;28;20029;-72
2021/08/12 11:39:49;;;;;;;8.20;5.70;;;28.60;61.10;;;;;;5058572;28;20393;-72
2021/08/12 11:42:37;;;;;;;5.82;4.68;;;29.30;60.00;;;;;;5056317;28;20086;-69
2021/08/12 11:45:17;;;;;;;5.97;5.00;;;31.10;55.60;;;;;;5055557;28;20103;-71
2021/08/12 11:47:44;;;;;;;7.60;4.78;;;33.00;50.30;;;;;;5057672;28;20090;-70
2021/08/12 11:50:12;;;;;;;5.10;4.55;;;33.20;48.30;;;;;;5035173;28;20037;-71
2021/08/12 11:52:44;;;;;;;5.53;4.95;;;34.80;47.00;;;;;;5059914;28;20075;-69
2021/08/12 11:55:11;;;;;;;4.90;4.40;;;35.30;42.70;;;;;;5056783;28;20025;-68
2021/08/12 11:57:57;;;;;;;6.15;4.40;;;35.00;42.50;;;;;;5024406;28;20162;-68
2021/08/12 12:00:27;;;;;;;6.13;4.97;;;35.10;42.50;;;;;;5057340;28;20398;-71
2021/08/12 12:02:55;;;;;;;5.55;4.68;;;35.50;42.10;;;;;;5039826;28;20052;-71
2021/08/12 12:05:26;;;;;;;6.03;4.40;;;35.50;42.70;;;;;;5040843;28;20123;-72
2021/08/12 12:07:57;;;;;;;5.05;4.55;;;35.50;42.10;;;;;;5038419;28;20033;-71
2021/08/12 12:10:41;;;;;;;6.22;4.50;;;35.10;42.50;;;;;;5039799;28;20028;-71
2021/08/12 12:13:11;;;;;;;6.18;4.80;;;34.60;42.10;;;;;;5059100;28;20469;-69
2021/08/12 12:15:46;;;;;;;5.05;4.40;;;34.80;43.50;;;;;;5059416;28;20536;-69
2021/08/12 12:18:15;;;;;;;7.30;5.07;;;35.40;44.10;;;;;;5057221;28;20139;-69
2021/08/12 12:20:45;;;;;;;4.97;4.35;;;35.80;42.60;;;;;;5040355;28;20513;-72
2021/08/12 12:23:13;;;;;;;5.22;4.40;;;35.80;42.60;;;;;;5057207;28;20044;-69
2021/08/12 12:25:42;;;;;;;5.68;4.68;;;35.40;42.20;;;;;;5060180;28;20036;-71
2021/08/12 12:28:10;;;;;;;4.72;3.90;;;35.10;41.60;;;;;;5057533;28;20040;-69
2021/08/12 12:30:37;;;;;;;6.30;4.30;;;34.60;42.90;;;;;;5059107;28;20048;-70
2021/08/12 12:33:09;;;;;;;5.25;3.95;;;34.00;41.30;;;;;;5059163;28;20079;-70
2021/08/12 12:35:43;;;;;;;6.32;4.60;;;33.70;44.30;;;;;;5039594;28;20029;-70
2021/08/12 12:38:13;;;;;;;6.05;4.63;;;33.60;44.90;;;;;;5057670;28;20037;-70
2021/08/12 12:40:39;;;;;;;4.53;4.03;;;33.70;46.00;;;;;;5058809;28;20111;-69
2021/08/12 12:43:06;;;;;;;4.60;4.10;;;33.90;44.80;;;;;;5040479;28;20422;-70
2021/08/12 12:45:55;;;;;;;5.15;4.07;;;34.30;43.80;;;;;;5058413;28;20037;-70
2021/08/12 12:48:41;;;;;;;5.15;4.65;;;35.20;42.30;;;;;;5040260;28;20035;-70
2021/08/12 12:51:08;;;;;;;4.95;4.45;;;35.20;43.00;;;;;;5057049;28;20021;-70
2021/08/12 12:53:42;;;;;;;4.50;4.07;;;35.20;42.00;;;;;;5039909;28;20032;-70